sensor_id;sensor_type;location;lat;lon;timestamp;temperature;humidity
975;DHT22;6115;49.296;10.602;2023-04-07T00:04:33;3.60;54.30
975;DHT22;6115;49.296;10.602;2023-04-07T00:09:34;3.70;54.20
975;DHT22;6115;49.296;10.602;2023-04-07T00:14:36;3.60;54.50
975;DHT22;6115;49.296;10.602;2023-04-07T00:19:36;3.80;54.20
975;DHT22;6115;49.296;10.602;2023-04-07T00:24:37;3.70;53.60
975;DHT22;6115;49.296;10.602;2023-04-07T00:29:37;3.90;53.20
975;DHT22;6115;49.296;10.602;2023-04-07T00:34:38;3.80;53.30
975;DHT22;6115;49.296;10.602;2023-04-07T00:39:38;3.80;53.30
975;DHT22;6115;49.296;10.602;2023-04-07T00:44:39;3.80;53.40
975;DHT22;6115;49.296;10.602;2023-04-07T00:49:40;3.80;53.60
975;DHT22;6115;49.296;10.602;2023-04-07T00:54:41;3.90;54.50
975;DHT22;6115;49.296;10.602;2023-04-07T00:59:42;3.80;54.60
975;DHT22;6115;49.296;10.602;2023-04-07T01:05:05;3.80;54.70
975;DHT22;6115;49.296;10.602;2023-04-07T01:10:11;3.80;55.20
975;DHT22;6115;49.296;10.602;2023-04-07T01:15:15;3.90;54.90
975;DHT22;6115;49.296;10.602;2023-04-07T01:20:22;3.70;55.20
975;DHT22;6115;49.296;10.602;2023-04-07T01:26:06;3.70;55.20
975;DHT22;6115;49.296;10.602;2023-04-07T01:31:14;3.70;55.20
975;DHT22;6115;49.296;10.602;2023-04-07T01:36:16;3.60;55.70
975;DHT22;6115;49.296;10.602;2023-04-07T01:41:18;3.70;55.60
975;DHT22;6115;49.296;10.602;2023-04-07T01:46:20;3.80;55.20
975;DHT22;6115;49.296;10.602;2023-04-07T01:51:21;3.90;55.30
975;DHT22;6115;49.296;10.602;2023-04-07T01:56:23;4.00;55.40
975;DHT22;6115;49.296;10.602;2023-04-07T02:01:23;4.00;55.40
975;DHT22;6115;49.296;10.602;2023-04-07T02:06:31;3.90;55.40
975;DHT22;6115;49.296;10.602;2023-04-07T02:11:33;4.00;55.40
975;DHT22;6115;49.296;10.602;2023-04-07T02:16:36;4.10;55.50
975;DHT22;6115;49.296;10.602;2023-04-07T02:21:39;4.10;55.50
975;DHT22;6115;49.296;10.602;2023-04-07T02:26:41;4.10;55.50
975;DHT22;6115;49.296;10.602;2023-04-07T02:31:42;4.30;55.60
975;DHT22;6115;49.296;10.602;2023-04-07T02:36:43;4.40;55.70
975;DHT22;6115;49.296;10.602;2023-04-07T02:41:43;4.40;55.70
975;DHT22;6115;49.296;10.602;2023-04-07T02:46:44;4.40;55.70
975;DHT22;6115;49.296;10.602;2023-04-07T02:51:44;4.50;55.80
975;DHT22;6115;49.296;10.602;2023-04-07T02:56:46;4.70;55.90
975;DHT22;6115;49.296;10.602;2023-04-07T03:01:46;4.80;56.70
975;DHT22;6115;49.296;10.602;2023-04-07T03:06:47;4.80;56.90
975;DHT22;6115;49.296;10.602;2023-04-07T03:11:47;5.00;57.30
975;DHT22;6115;49.296;10.602;2023-04-07T03:16:48;5.10;57.50
975;DHT22;6115;49.296;10.602;2023-04-07T03:21:49;4.90;57.20
975;DHT22;6115;49.296;10.602;2023-04-07T03:26:49;4.90;57.40
975;DHT22;6115;49.296;10.602;2023-04-07T03:31:50;4.90;57.70
975;DHT22;6115;49.296;10.602;2023-04-07T03:36:51;4.80;58.20
975;DHT22;6115;49.296;10.602;2023-04-07T03:41:51;4.80;58.10
975;DHT22;6115;49.296;10.602;2023-04-07T03:46:52;4.70;57.80
975;DHT22;6115;49.296;10.602;2023-04-07T03:51:53;4.70;57.80
975;DHT22;6115;49.296;10.602;2023-04-07T03:56:53;4.50;58.40
975;DHT22;6115;49.296;10.602;2023-04-07T04:01:54;4.60;59.20
975;DHT22;6115;49.296;10.602;2023-04-07T04:06:55;4.60;60.20
975;DHT22;6115;49.296;10.602;2023-04-07T04:11:55;4.70;60.40
975;DHT22;6115;49.296;10.602;2023-04-07T04:16:56;4.70;60.30
975;DHT22;6115;49.296;10.602;2023-04-07T04:21:56;4.80;61.30
975;DHT22;6115;49.296;10.602;2023-04-07T04:26:57;4.70;62.00
975;DHT22;6115;49.296;10.602;2023-04-07T04:31:57;4.80;62.20
975;DHT22;6115;49.296;10.602;2023-04-07T04:36:58;4.70;62.10
975;DHT22;6115;49.296;10.602;2023-04-07T04:41:59;4.70;61.90
975;DHT22;6115;49.296;10.602;2023-04-07T04:47:03;4.70;61.90
975;DHT22;6115;49.296;10.602;2023-04-07T04:52:04;4.70;63.00
975;DHT22;6115;49.296;10.602;2023-04-07T04:57:04;4.60;63.90
975;DHT22;6115;49.296;10.602;2023-04-07T05:02:05;4.70;64.10
975;DHT22;6115;49.296;10.602;2023-04-07T05:07:05;4.80;65.30
975;DHT22;6115;49.296;10.602;2023-04-07T05:12:06;4.70;65.70
975;DHT22;6115;49.296;10.602;2023-04-07T05:17:06;4.40;65.70
975;DHT22;6115;49.296;10.602;2023-04-07T05:22:07;4.40;65.10
975;DHT22;6115;49.296;10.602;2023-04-07T05:27:08;4.50;65.90
975;DHT22;6115;49.296;10.602;2023-04-07T05:32:08;4.50;65.70
975;DHT22;6115;49.296;10.602;2023-04-07T05:37:09;4.50;65.00
975;DHT22;6115;49.296;10.602;2023-04-07T05:42:10;4.60;65.20
975;DHT22;6115;49.296;10.602;2023-04-07T05:47:10;4.60;64.40
975;DHT22;6115;49.296;10.602;2023-04-07T05:52:12;4.70;65.00
975;DHT22;6115;49.296;10.602;2023-04-07T05:57:12;4.80;65.20
975;DHT22;6115;49.296;10.602;2023-04-07T06:02:13;5.00;65.50
975;DHT22;6115;49.296;10.602;2023-04-07T06:07:14;4.90;65.40
975;DHT22;6115;49.296;10.602;2023-04-07T06:12:14;5.10;66.20
975;DHT22;6115;49.296;10.602;2023-04-07T06:17:16;5.30;66.50
975;DHT22;6115;49.296;10.602;2023-04-07T06:22:16;5.50;66.00
975;DHT22;6115;49.296;10.602;2023-04-07T06:27:17;5.70;65.80
975;DHT22;6115;49.296;10.602;2023-04-07T06:32:17;5.80;64.90
975;DHT22;6115;49.296;10.602;2023-04-07T06:37:18;6.00;65.10
975;DHT22;6115;49.296;10.602;2023-04-07T06:42:18;6.30;65.10
975;DHT22;6115;49.296;10.602;2023-04-07T06:47:19;6.50;64.90
975;DHT22;6115;49.296;10.602;2023-04-07T06:52:20;6.70;64.80
975;DHT22;6115;49.296;10.602;2023-04-07T06:57:21;6.60;63.40
975;DHT22;6115;49.296;10.602;2023-04-07T07:02:21;6.70;64.10
975;DHT22;6115;49.296;10.602;2023-04-07T07:07:22;6.90;63.50
975;DHT22;6115;49.296;10.602;2023-04-07T07:12:25;7.10;62.60
975;DHT22;6115;49.296;10.602;2023-04-07T07:17:25;7.30;61.50
975;DHT22;6115;49.296;10.602;2023-04-07T07:22:26;7.60;61.30
975;DHT22;6115;49.296;10.602;2023-04-07T07:27:26;7.70;59.80
975;DHT22;6115;49.296;10.602;2023-04-07T07:32:27;7.80;60.40
975;DHT22;6115;49.296;10.602;2023-04-07T07:37:27;8.30;59.60
975;DHT22;6115;49.296;10.602;2023-04-07T07:42:29;8.40;58.90
975;DHT22;6115;49.296;10.602;2023-04-07T07:47:30;8.60;58.50
975;DHT22;6115;49.296;10.602;2023-04-07T07:52:31;8.70;58.40
975;DHT22;6115;49.296;10.602;2023-04-07T07:57:32;8.80;57.80
975;DHT22;6115;49.296;10.602;2023-04-07T08:02:32;9.00;57.60
975;DHT22;6115;49.296;10.602;2023-04-07T08:07:33;9.40;56.20
975;DHT22;6115;49.296;10.602;2023-04-07T08:12:34;9.50;55.10
975;DHT22;6115;49.296;10.602;2023-04-07T08:17:35;9.50;54.30
975;DHT22;6115;49.296;10.602;2023-04-07T08:22:36;9.50;54.70
975;DHT22;6115;49.296;10.602;2023-04-07T08:27:36;9.80;55.20
975;DHT22;6115;49.296;10.602;2023-04-07T08:32:41;10.00;54.70
975;DHT22;6115;49.296;10.602;2023-04-07T08:37:42;9.70;54.90
975;DHT22;6115;49.296;10.602;2023-04-07T08:42:47;9.80;55.60
975;DHT22;6115;49.296;10.602;2023-04-07T08:47:49;9.70;55.00
975;DHT22;6115;49.296;10.602;2023-04-07T08:52:54;9.60;55.50
975;DHT22;6115;49.296;10.602;2023-04-07T08:57:56;9.80;56.50
975;DHT22;6115;49.296;10.602;2023-04-07T09:02:59;10.00;54.30
975;DHT22;6115;49.296;10.602;2023-04-07T09:08:01;10.70;53.20
975;DHT22;6115;49.296;10.602;2023-04-07T09:13:01;11.00;51.40
975;DHT22;6115;49.296;10.602;2023-04-07T09:18:02;11.00;51.90
975;DHT22;6115;49.296;10.602;2023-04-07T09:23:03;11.60;51.80
975;DHT22;6115;49.296;10.602;2023-04-07T09:28:04;12.10;51.70
975;DHT22;6115;49.296;10.602;2023-04-07T09:33:05;12.10;50.00
975;DHT22;6115;49.296;10.602;2023-04-07T09:38:06;12.30;48.80
975;DHT22;6115;49.296;10.602;2023-04-07T09:43:14;11.90;48.90
975;DHT22;6115;49.296;10.602;2023-04-07T09:48:20;11.60;48.60
975;DHT22;6115;49.296;10.602;2023-04-07T09:53:39;11.50;49.60
975;DHT22;6115;49.296;10.602;2023-04-07T09:58:40;11.30;48.70
975;DHT22;6115;49.296;10.602;2023-04-07T10:03:43;11.40;48.90
975;DHT22;6115;49.296;10.602;2023-04-07T10:08:45;11.60;49.50
975;DHT22;6115;49.296;10.602;2023-04-07T10:13:46;11.70;48.90
975;DHT22;6115;49.296;10.602;2023-04-07T10:18:47;11.90;48.20
975;DHT22;6115;49.296;10.602;2023-04-07T10:29:20;12.50;47.10
975;DHT22;6115;49.296;10.602;2023-04-07T10:45:09;12.50;45.30
975;DHT22;6115;49.296;10.602;2023-04-07T10:50:17;12.60;44.00
975;DHT22;6115;49.296;10.602;2023-04-07T10:55:37;12.60;44.60
975;DHT22;6115;49.296;10.602;2023-04-07T11:00:38;12.60;44.10
975;DHT22;6115;49.296;10.602;2023-04-07T11:05:39;12.80;43.90
975;DHT22;6115;49.296;10.602;2023-04-07T11:10:46;12.50;43.60
975;DHT22;6115;49.296;10.602;2023-04-07T11:15:49;12.50;45.10
975;DHT22;6115;49.296;10.602;2023-04-07T11:20:53;12.70;44.70
975;DHT22;6115;49.296;10.602;2023-04-07T11:26:02;12.80;43.90
975;DHT22;6115;49.296;10.602;2023-04-07T11:31:03;12.90;44.00
975;DHT22;6115;49.296;10.602;2023-04-07T11:36:06;13.40;43.30
975;DHT22;6115;49.296;10.602;2023-04-07T11:41:11;13.70;42.00
975;DHT22;6115;49.296;10.602;2023-04-07T11:46:17;13.80;41.60
975;DHT22;6115;49.296;10.602;2023-04-07T11:51:21;14.50;41.00
975;DHT22;6115;49.296;10.602;2023-04-07T11:56:27;14.50;41.80
975;DHT22;6115;49.296;10.602;2023-04-07T12:01:39;15.60;41.40
975;DHT22;6115;49.296;10.602;2023-04-07T12:06:41;15.80;37.60
975;DHT22;6115;49.296;10.602;2023-04-07T12:11:48;15.20;39.50
975;DHT22;6115;49.296;10.602;2023-04-07T12:16:49;15.10;38.70
975;DHT22;6115;49.296;10.602;2023-04-07T12:21:50;15.10;40.40
975;DHT22;6115;49.296;10.602;2023-04-07T12:26:50;15.00;39.50
975;DHT22;6115;49.296;10.602;2023-04-07T12:31:51;14.90;39.90
975;DHT22;6115;49.296;10.602;2023-04-07T12:36:52;15.30;39.00
975;DHT22;6115;49.296;10.602;2023-04-07T12:41:52;15.80;37.10
975;DHT22;6115;49.296;10.602;2023-04-07T12:46:54;15.70;37.00
975;DHT22;6115;49.296;10.602;2023-04-07T12:51:55;15.70;39.90
975;DHT22;6115;49.296;10.602;2023-04-07T12:56:56;15.80;37.90
975;DHT22;6115;49.296;10.602;2023-04-07T13:01:57;15.90;37.10
975;DHT22;6115;49.296;10.602;2023-04-07T13:06:58;16.10;37.30
975;DHT22;6115;49.296;10.602;2023-04-07T13:12:00;16.30;37.70
975;DHT22;6115;49.296;10.602;2023-04-07T13:17:01;16.00;37.20
975;DHT22;6115;49.296;10.602;2023-04-07T13:22:01;15.90;37.10
975;DHT22;6115;49.296;10.602;2023-04-07T13:27:02;15.10;39.10
975;DHT22;6115;49.296;10.602;2023-04-07T13:32:10;15.30;39.20
975;DHT22;6115;49.296;10.602;2023-04-07T13:37:12;15.40;39.10
975;DHT22;6115;49.296;10.602;2023-04-07T13:42:14;15.90;37.10
975;DHT22;6115;49.296;10.602;2023-04-07T13:47:18;15.80;37.10
975;DHT22;6115;49.296;10.602;2023-04-07T13:52:19;15.20;39.00
975;DHT22;6115;49.296;10.602;2023-04-07T13:57:19;15.10;38.80
975;DHT22;6115;49.296;10.602;2023-04-07T14:02:20;15.20;38.70
975;DHT22;6115;49.296;10.602;2023-04-07T14:07:21;16.00;39.30
975;DHT22;6115;49.296;10.602;2023-04-07T14:12:22;17.00;38.10
975;DHT22;6115;49.296;10.602;2023-04-07T14:17:23;17.60;36.60
975;DHT22;6115;49.296;10.602;2023-04-07T14:22:24;17.90;34.90
975;DHT22;6115;49.296;10.602;2023-04-07T14:27:24;17.70;35.20
975;DHT22;6115;49.296;10.602;2023-04-07T14:32:26;17.70;34.70
975;DHT22;6115;49.296;10.602;2023-04-07T14:37:28;17.40;35.80
975;DHT22;6115;49.296;10.602;2023-04-07T14:42:29;17.80;35.30
975;DHT22;6115;49.296;10.602;2023-04-07T14:47:30;17.80;34.00
975;DHT22;6115;49.296;10.602;2023-04-07T14:52:30;17.50;33.80
975;DHT22;6115;49.296;10.602;2023-04-07T14:57:31;16.80;34.90
975;DHT22;6115;49.296;10.602;2023-04-07T15:02:32;16.40;35.40
975;DHT22;6115;49.296;10.602;2023-04-07T15:07:33;16.60;35.80
975;DHT22;6115;49.296;10.602;2023-04-07T15:12:34;16.70;36.60
975;DHT22;6115;49.296;10.602;2023-04-07T15:17:34;16.60;36.40
975;DHT22;6115;49.296;10.602;2023-04-07T15:22:35;16.30;37.60
975;DHT22;6115;49.296;10.602;2023-04-07T15:27:35;15.90;38.10
975;DHT22;6115;49.296;10.602;2023-04-07T15:32:36;15.90;37.80
975;DHT22;6115;49.296;10.602;2023-04-07T15:37:36;15.80;38.70
975;DHT22;6115;49.296;10.602;2023-04-07T15:42:37;15.60;37.30
975;DHT22;6115;49.296;10.602;2023-04-07T15:47:39;15.70;37.00
975;DHT22;6115;49.296;10.602;2023-04-07T15:52:39;15.60;37.80
975;DHT22;6115;49.296;10.602;2023-04-07T15:57:40;15.50;36.80
975;DHT22;6115;49.296;10.602;2023-04-07T16:02:40;15.40;37.20
975;DHT22;6115;49.296;10.602;2023-04-07T16:07:41;15.20;37.50
975;DHT22;6115;49.296;10.602;2023-04-07T16:12:41;15.00;37.70
975;DHT22;6115;49.296;10.602;2023-04-07T16:17:46;14.70;38.80
975;DHT22;6115;49.296;10.602;2023-04-07T16:22:47;14.50;38.50
975;DHT22;6115;49.296;10.602;2023-04-07T16:27:50;14.10;38.60
975;DHT22;6115;49.296;10.602;2023-04-07T16:32:51;14.10;39.00
975;DHT22;6115;49.296;10.602;2023-04-07T16:37:52;14.10;39.10
975;DHT22;6115;49.296;10.602;2023-04-07T16:42:53;13.80;39.10
975;DHT22;6115;49.296;10.602;2023-04-07T16:47:54;13.70;40.00
975;DHT22;6115;49.296;10.602;2023-04-07T16:52:55;13.70;40.30
975;DHT22;6115;49.296;10.602;2023-04-07T16:57:56;13.50;41.00
975;DHT22;6115;49.296;10.602;2023-04-07T17:02:57;13.50;41.00
975;DHT22;6115;49.296;10.602;2023-04-07T17:07:58;13.20;40.90
975;DHT22;6115;49.296;10.602;2023-04-07T17:12:58;13.20;41.40
975;DHT22;6115;49.296;10.602;2023-04-07T17:17:59;13.10;41.90
975;DHT22;6115;49.296;10.602;2023-04-07T17:23:00;13.00;42.40
975;DHT22;6115;49.296;10.602;2023-04-07T17:28:01;12.90;42.60
975;DHT22;6115;49.296;10.602;2023-04-07T17:33:02;12.80;43.00
975;DHT22;6115;49.296;10.602;2023-04-07T17:38:03;12.60;43.60
975;DHT22;6115;49.296;10.602;2023-04-07T17:43:03;12.60;43.40
975;DHT22;6115;49.296;10.602;2023-04-07T17:48:04;12.40;43.50
975;DHT22;6115;49.296;10.602;2023-04-07T17:53:08;12.30;43.40
975;DHT22;6115;49.296;10.602;2023-04-07T17:58:09;12.20;43.30
975;DHT22;6115;49.296;10.602;2023-04-07T18:03:09;12.00;43.20
975;DHT22;6115;49.296;10.602;2023-04-07T18:08:11;11.90;43.20
975;DHT22;6115;49.296;10.602;2023-04-07T18:13:12;11.70;43.80
975;DHT22;6115;49.296;10.602;2023-04-07T18:18:13;11.60;44.20
975;DHT22;6115;49.296;10.602;2023-04-07T18:23:14;11.40;44.50
975;DHT22;6115;49.296;10.602;2023-04-07T18:28:14;11.30;45.00
975;DHT22;6115;49.296;10.602;2023-04-07T18:33:16;11.10;45.30
975;DHT22;6115;49.296;10.602;2023-04-07T18:38:16;11.00;45.40
975;DHT22;6115;49.296;10.602;2023-04-07T18:43:17;10.80;45.80
975;DHT22;6115;49.296;10.602;2023-04-07T18:48:18;10.70;46.20
975;DHT22;6115;49.296;10.602;2023-04-07T18:53:22;10.50;46.40
975;DHT22;6115;49.296;10.602;2023-04-07T18:58:23;10.40;46.60
975;DHT22;6115;49.296;10.602;2023-04-07T19:03:24;10.30;47.20
975;DHT22;6115;49.296;10.602;2023-04-07T19:08:24;10.30;47.40
975;DHT22;6115;49.296;10.602;2023-04-07T19:13:25;10.20;47.70
975;DHT22;6115;49.296;10.602;2023-04-07T19:18:26;10.20;48.50
975;DHT22;6115;49.296;10.602;2023-04-07T19:23:28;10.10;48.80
975;DHT22;6115;49.296;10.602;2023-04-07T19:28:29;10.10;49.30
975;DHT22;6115;49.296;10.602;2023-04-07T19:33:30;10.00;50.00
975;DHT22;6115;49.296;10.602;2023-04-07T19:38:31;9.90;51.40
975;DHT22;6115;49.296;10.602;2023-04-07T19:43:31;9.90;51.20
975;DHT22;6115;49.296;10.602;2023-04-07T19:48:32;9.80;51.20
975;DHT22;6115;49.296;10.602;2023-04-07T19:53:33;9.60;51.10
975;DHT22;6115;49.296;10.602;2023-04-07T19:58:33;9.30;51.70
975;DHT22;6115;49.296;10.602;2023-04-07T20:03:34;9.10;52.40
975;DHT22;6115;49.296;10.602;2023-04-07T20:08:35;9.10;52.90
975;DHT22;6115;49.296;10.602;2023-04-07T20:13:36;8.90;53.00
975;DHT22;6115;49.296;10.602;2023-04-07T20:18:37;8.70;53.40
975;DHT22;6115;49.296;10.602;2023-04-07T20:23:37;8.40;54.40
975;DHT22;6115;49.296;10.602;2023-04-07T20:28:38;8.20;54.40
975;DHT22;6115;49.296;10.602;2023-04-07T20:33:39;8.10;55.40
975;DHT22;6115;49.296;10.602;2023-04-07T20:38:39;8.00;55.90
975;DHT22;6115;49.296;10.602;2023-04-07T20:43:43;8.00;56.20
975;DHT22;6115;49.296;10.602;2023-04-07T20:48:44;7.90;56.50
975;DHT22;6115;49.296;10.602;2023-04-07T20:53:47;7.70;56.90
975;DHT22;6115;49.296;10.602;2023-04-07T20:58:47;7.30;57.50
975;DHT22;6115;49.296;10.602;2023-04-07T21:03:48;7.20;57.70
975;DHT22;6115;49.296;10.602;2023-04-07T21:08:49;7.20;57.70
975;DHT22;6115;49.296;10.602;2023-04-07T21:13:49;7.10;57.90
975;DHT22;6115;49.296;10.602;2023-04-07T21:18:50;6.90;57.70
975;DHT22;6115;49.296;10.602;2023-04-07T21:23:50;6.70;58.40
975;DHT22;6115;49.296;10.602;2023-04-07T21:28:51;6.60;58.60
975;DHT22;6115;49.296;10.602;2023-04-07T21:33:52;6.50;58.70
975;DHT22;6115;49.296;10.602;2023-04-07T21:38:52;6.40;59.30
975;DHT22;6115;49.296;10.602;2023-04-07T21:43:53;6.20;59.40
975;DHT22;6115;49.296;10.602;2023-04-07T21:48:54;6.10;59.90
975;DHT22;6115;49.296;10.602;2023-04-07T21:53:56;6.00;60.40
975;DHT22;6115;49.296;10.602;2023-04-07T21:58:57;5.90;61.10
975;DHT22;6115;49.296;10.602;2023-04-07T22:03:57;5.80;61.40
975;DHT22;6115;49.296;10.602;2023-04-07T22:08:58;5.80;62.80
975;DHT22;6115;49.296;10.602;2023-04-07T22:13:58;5.70;63.70
975;DHT22;6115;49.296;10.602;2023-04-07T22:18:59;5.70;63.90
975;DHT22;6115;49.296;10.602;2023-04-07T22:24:00;5.70;64.30
975;DHT22;6115;49.296;10.602;2023-04-07T22:29:00;5.40;63.60
975;DHT22;6115;49.296;10.602;2023-04-07T22:34:01;5.10;63.90
975;DHT22;6115;49.296;10.602;2023-04-07T22:39:02;5.10;63.60
975;DHT22;6115;49.296;10.602;2023-04-07T22:44:04;5.10;63.30
975;DHT22;6115;49.296;10.602;2023-04-07T22:49:04;5.00;63.20
975;DHT22;6115;49.296;10.602;2023-04-07T22:54:05;4.90;63.50
975;DHT22;6115;49.296;10.602;2023-04-07T22:59:06;4.80;64.00
975;DHT22;6115;49.296;10.602;2023-04-07T23:04:06;4.70;64.70
975;DHT22;6115;49.296;10.602;2023-04-07T23:09:07;4.70;65.30
975;DHT22;6115;49.296;10.602;2023-04-07T23:14:08;4.60;65.70
975;DHT22;6115;49.296;10.602;2023-04-07T23:19:08;4.60;66.30
975;DHT22;6115;49.296;10.602;2023-04-07T23:24:11;4.30;66.20
975;DHT22;6115;49.296;10.602;2023-04-07T23:29:11;4.20;66.40
975;DHT22;6115;49.296;10.602;2023-04-07T23:34:12;4.20;66.30
975;DHT22;6115;49.296;10.602;2023-04-07T23:39:12;4.20;66.50
975;DHT22;6115;49.296;10.602;2023-04-07T23:44:13;4.10;67.80
975;DHT22;6115;49.296;10.602;2023-04-07T23:49:13;4.00;68.40
975;DHT22;6115;49.296;10.602;2023-04-07T23:54:14;4.00;69.40
975;DHT22;6115;49.296;10.602;2023-04-07T23:59:15;4.10;70.80
